sensor_id;sensor_type;location;lat;lon;timestamp;temperature;humidity
60909;DHT22;46780;48.128;-1.704;2023-08-24T00:01:15;25.10;96.80
60909;DHT22;46780;48.128;-1.704;2023-08-24T00:03:43;25.10;96.80
60909;DHT22;46780;48.128;-1.704;2023-08-24T00:06:09;25.10;96.80
60909;DHT22;46780;48.128;-1.704;2023-08-24T00:08:36;25.20;96.80
60909;DHT22;46780;48.128;-1.704;2023-08-24T00:11:04;25.20;96.80
60909;DHT22;46780;48.128;-1.704;2023-08-24T00:13:30;25.20;96.90
60909;DHT22;46780;48.128;-1.704;2023-08-24T00:15:57;25.10;97.00
60909;DHT22;46780;48.128;-1.704;2023-08-24T00:18:24;25.10;97.20
60909;DHT22;46780;48.128;-1.704;2023-08-24T00:20:51;25.10;97.40
60909;DHT22;46780;48.128;-1.704;2023-08-24T00:23:17;25.00;97.60
60909;DHT22;46780;48.128;-1.704;2023-08-24T00:25:44;25.00;97.60
60909;DHT22;46780;48.128;-1.704;2023-08-24T00:28:12;25.00;97.80
60909;DHT22;46780;48.128;-1.704;2023-08-24T00:30:38;25.00;97.90
60909;DHT22;46780;48.128;-1.704;2023-08-24T00:33:05;25.00;98.10
60909;DHT22;46780;48.128;-1.704;2023-08-24T00:35:31;25.00;98.20
60909;DHT22;46780;48.128;-1.704;2023-08-24T00:37:58;24.90;98.30
60909;DHT22;46780;48.128;-1.704;2023-08-24T00:40:24;24.90;98.40
60909;DHT22;46780;48.128;-1.704;2023-08-24T00:42:51;24.80;98.60
60909;DHT22;46780;48.128;-1.704;2023-08-24T00:45:19;24.80;98.70
60909;DHT22;46780;48.128;-1.704;2023-08-24T00:47:46;24.80;98.80
60909;DHT22;46780;48.128;-1.704;2023-08-24T00:50:13;24.80;98.90
60909;DHT22;46780;48.128;-1.704;2023-08-24T00:52:43;24.70;98.90
60909;DHT22;46780;48.128;-1.704;2023-08-24T00:55:10;24.70;98.90
60909;DHT22;46780;48.128;-1.704;2023-08-24T00:57:37;24.70;98.90
60909;DHT22;46780;48.128;-1.704;2023-08-24T01:00:05;24.70;99.10
60909;DHT22;46780;48.128;-1.704;2023-08-24T01:02:34;24.70;99.20
60909;DHT22;46780;48.128;-1.704;2023-08-24T01:05:01;24.70;99.30
60909;DHT22;46780;48.128;-1.704;2023-08-24T01:07:27;24.60;99.40
60909;DHT22;46780;48.128;-1.704;2023-08-24T01:09:55;24.60;99.60
60909;DHT22;46780;48.128;-1.704;2023-08-24T01:12:28;24.60;99.70
60909;DHT22;46780;48.128;-1.704;2023-08-24T01:15:03;24.60;99.90
60909;DHT22;46780;48.128;-1.704;2023-08-24T01:17:35;24.60;99.90
60909;DHT22;46780;48.128;-1.704;2023-08-24T01:20:04;24.60;99.90
60909;DHT22;46780;48.128;-1.704;2023-08-24T01:22:34;24.60;99.90
60909;DHT22;46780;48.128;-1.704;2023-08-24T01:25:12;24.60;99.90
60909;DHT22;46780;48.128;-1.704;2023-08-24T01:27:43;24.50;99.90
60909;DHT22;46780;48.128;-1.704;2023-08-24T01:30:10;24.60;99.90
60909;DHT22;46780;48.128;-1.704;2023-08-24T01:32:40;24.50;99.90
60909;DHT22;46780;48.128;-1.704;2023-08-24T01:35:08;24.50;99.90
60909;DHT22;46780;48.128;-1.704;2023-08-24T01:37:36;24.50;99.90
60909;DHT22;46780;48.128;-1.704;2023-08-24T01:40:05;24.50;99.90
60909;DHT22;46780;48.128;-1.704;2023-08-24T01:42:33;24.50;99.90
60909;DHT22;46780;48.128;-1.704;2023-08-24T01:45:05;24.50;99.90
60909;DHT22;46780;48.128;-1.704;2023-08-24T01:47:34;24.50;99.90
60909;DHT22;46780;48.128;-1.704;2023-08-24T01:50:01;24.40;99.90
60909;DHT22;46780;48.128;-1.704;2023-08-24T01:52:28;24.40;99.90
60909;DHT22;46780;48.128;-1.704;2023-08-24T01:54:55;24.40;99.90
60909;DHT22;46780;48.128;-1.704;2023-08-24T01:57:21;24.40;99.90
60909;DHT22;46780;48.128;-1.704;2023-08-24T01:59:48;24.40;99.90
60909;DHT22;46780;48.128;-1.704;2023-08-24T02:02:16;24.40;99.90
60909;DHT22;46780;48.128;-1.704;2023-08-24T02:04:43;24.40;99.90
60909;DHT22;46780;48.128;-1.704;2023-08-24T02:07:09;24.30;99.90
60909;DHT22;46780;48.128;-1.704;2023-08-24T02:09:36;24.30;99.90
60909;DHT22;46780;48.128;-1.704;2023-08-24T02:12:02;24.30;99.90
60909;DHT22;46780;48.128;-1.704;2023-08-24T02:14:29;24.30;99.90
60909;DHT22;46780;48.128;-1.704;2023-08-24T02:16:55;24.20;99.90
60909;DHT22;46780;48.128;-1.704;2023-08-24T02:19:23;24.20;99.90
60909;DHT22;46780;48.128;-1.704;2023-08-24T02:21:50;24.20;99.90
60909;DHT22;46780;48.128;-1.704;2023-08-24T02:24:16;24.20;99.90
60909;DHT22;46780;48.128;-1.704;2023-08-24T02:26:43;24.20;99.90
60909;DHT22;46780;48.128;-1.704;2023-08-24T02:29:10;24.20;99.90
60909;DHT22;46780;48.128;-1.704;2023-08-24T02:31:36;24.20;99.80
60909;DHT22;46780;48.128;-1.704;2023-08-24T02:34:03;24.30;99.40
60909;DHT22;46780;48.128;-1.704;2023-08-24T02:36:31;24.20;98.90
60909;DHT22;46780;48.128;-1.704;2023-08-24T02:38:57;24.20;99.10
60909;DHT22;46780;48.128;-1.704;2023-08-24T02:41:24;24.20;98.50
60909;DHT22;46780;48.128;-1.704;2023-08-24T02:43:50;24.20;98.30
60909;DHT22;46780;48.128;-1.704;2023-08-24T02:46:16;24.10;98.30
60909;DHT22;46780;48.128;-1.704;2023-08-24T02:48:43;24.10;98.10
60909;DHT22;46780;48.128;-1.704;2023-08-24T02:51:10;24.10;97.90
60909;DHT22;46780;48.128;-1.704;2023-08-24T02:53:38;24.10;97.80
60909;DHT22;46780;48.128;-1.704;2023-08-24T02:56:05;24.10;97.80
60909;DHT22;46780;48.128;-1.704;2023-08-24T02:58:31;24.00;97.80
60909;DHT22;46780;48.128;-1.704;2023-08-24T03:00:58;24.00;97.70
60909;DHT22;46780;48.128;-1.704;2023-08-24T03:03:24;24.00;97.60
60909;DHT22;46780;48.128;-1.704;2023-08-24T03:05:55;24.00;97.60
60909;DHT22;46780;48.128;-1.704;2023-08-24T03:08:21;23.90;97.60
60909;DHT22;46780;48.128;-1.704;2023-08-24T03:10:50;23.80;97.60
60909;DHT22;46780;48.128;-1.704;2023-08-24T03:13:16;23.80;97.60
60909;DHT22;46780;48.128;-1.704;2023-08-24T03:15:43;23.70;97.80
60909;DHT22;46780;48.128;-1.704;2023-08-24T03:18:12;23.70;97.80
60909;DHT22;46780;48.128;-1.704;2023-08-24T03:20:38;23.60;97.80
60909;DHT22;46780;48.128;-1.704;2023-08-24T03:23:05;23.60;97.80
60909;DHT22;46780;48.128;-1.704;2023-08-24T03:25:35;23.50;97.80
60909;DHT22;46780;48.128;-1.704;2023-08-24T03:28:04;23.50;97.80
60909;DHT22;46780;48.128;-1.704;2023-08-24T03:30:32;23.40;97.80
60909;DHT22;46780;48.128;-1.704;2023-08-24T03:32:59;23.30;97.90
60909;DHT22;46780;48.128;-1.704;2023-08-24T03:35:26;23.30;98.10
60909;DHT22;46780;48.128;-1.704;2023-08-24T03:37:52;23.20;98.10
60909;DHT22;46780;48.128;-1.704;2023-08-24T03:40:18;23.20;98.20
60909;DHT22;46780;48.128;-1.704;2023-08-24T03:42:45;23.20;98.30
60909;DHT22;46780;48.128;-1.704;2023-08-24T03:45:20;23.10;98.50
60909;DHT22;46780;48.128;-1.704;2023-08-24T03:47:47;23.10;98.60
60909;DHT22;46780;48.128;-1.704;2023-08-24T03:50:14;23.10;98.50
60909;DHT22;46780;48.128;-1.704;2023-08-24T03:52:41;23.20;98.50
60909;DHT22;46780;48.128;-1.704;2023-08-24T03:55:08;23.20;98.40
60909;DHT22;46780;48.128;-1.704;2023-08-24T03:57:34;23.20;98.30
60909;DHT22;46780;48.128;-1.704;2023-08-24T04:00:01;23.20;98.30
60909;DHT22;46780;48.128;-1.704;2023-08-24T04:02:28;23.30;98.20
60909;DHT22;46780;48.128;-1.704;2023-08-24T04:04:55;23.30;98.20
60909;DHT22;46780;48.128;-1.704;2023-08-24T04:07:21;23.30;98.10
60909;DHT22;46780;48.128;-1.704;2023-08-24T04:09:48;23.30;97.90
60909;DHT22;46780;48.128;-1.704;2023-08-24T04:12:14;23.30;97.90
60909;DHT22;46780;48.128;-1.704;2023-08-24T04:14:40;23.20;97.90
60909;DHT22;46780;48.128;-1.704;2023-08-24T04:17:07;23.20;97.90
60909;DHT22;46780;48.128;-1.704;2023-08-24T04:19:37;23.20;98.00
60909;DHT22;46780;48.128;-1.704;2023-08-24T04:22:04;23.20;98.10
60909;DHT22;46780;48.128;-1.704;2023-08-24T04:24:31;23.20;98.20
60909;DHT22;46780;48.128;-1.704;2023-08-24T04:26:57;23.20;98.20
60909;DHT22;46780;48.128;-1.704;2023-08-24T04:29:24;23.20;98.10
60909;DHT22;46780;48.128;-1.704;2023-08-24T04:31:50;23.20;98.20
60909;DHT22;46780;48.128;-1.704;2023-08-24T04:34:17;23.20;98.20
60909;DHT22;46780;48.128;-1.704;2023-08-24T04:36:45;23.20;98.20
60909;DHT22;46780;48.128;-1.704;2023-08-24T04:39:11;23.20;98.30
60909;DHT22;46780;48.128;-1.704;2023-08-24T04:41:38;23.10;98.30
60909;DHT22;46780;48.128;-1.704;2023-08-24T04:44:04;23.10;98.30
60909;DHT22;46780;48.128;-1.704;2023-08-24T04:46:31;23.10;98.40
60909;DHT22;46780;48.128;-1.704;2023-08-24T04:48:57;23.10;98.90
60909;DHT22;46780;48.128;-1.704;2023-08-24T04:51:24;23.00;98.60
60909;DHT22;46780;48.128;-1.704;2023-08-24T04:53:51;23.10;98.60
60909;DHT22;46780;48.128;-1.704;2023-08-24T04:56:18;23.10;98.60
60909;DHT22;46780;48.128;-1.704;2023-08-24T04:58:53;23.10;98.50
60909;DHT22;46780;48.128;-1.704;2023-08-24T05:01:19;23.10;98.60
60909;DHT22;46780;48.128;-1.704;2023-08-24T05:03:46;23.10;98.60
60909;DHT22;46780;48.128;-1.704;2023-08-24T05:06:13;23.10;98.50
60909;DHT22;46780;48.128;-1.704;2023-08-24T05:08:40;23.10;98.50
60909;DHT22;46780;48.128;-1.704;2023-08-24T05:11:12;23.20;98.50
60909;DHT22;46780;48.128;-1.704;2023-08-24T05:13:38;23.20;98.50
60909;DHT22;46780;48.128;-1.704;2023-08-24T05:16:04;23.20;98.50
60909;DHT22;46780;48.128;-1.704;2023-08-24T05:18:31;23.20;98.60
60909;DHT22;46780;48.128;-1.704;2023-08-24T05:20:58;23.20;98.60
60909;DHT22;46780;48.128;-1.704;2023-08-24T05:23:24;23.20;98.70
60909;DHT22;46780;48.128;-1.704;2023-08-24T05:25:50;23.10;98.90
60909;DHT22;46780;48.128;-1.704;2023-08-24T05:28:18;23.10;99.10
60909;DHT22;46780;48.128;-1.704;2023-08-24T05:30:45;23.10;99.10
60909;DHT22;46780;48.128;-1.704;2023-08-24T05:33:11;23.10;99.20
60909;DHT22;46780;48.128;-1.704;2023-08-24T05:35:38;23.10;99.30
60909;DHT22;46780;48.128;-1.704;2023-08-24T05:38:04;23.10;99.40
60909;DHT22;46780;48.128;-1.704;2023-08-24T05:40:33;23.10;99.30
60909;DHT22;46780;48.128;-1.704;2023-08-24T05:43:00;23.10;99.30
60909;DHT22;46780;48.128;-1.704;2023-08-24T05:45:27;23.20;99.30
60909;DHT22;46780;48.128;-1.704;2023-08-24T05:47:54;23.20;99.20
60909;DHT22;46780;48.128;-1.704;2023-08-24T05:50:20;23.30;99.60
60909;DHT22;46780;48.128;-1.704;2023-08-24T05:52:47;23.30;99.00
60909;DHT22;46780;48.128;-1.704;2023-08-24T05:55:13;23.40;98.90
60909;DHT22;46780;48.128;-1.704;2023-08-24T05:57:40;23.40;98.80
60909;DHT22;46780;48.128;-1.704;2023-08-24T06:00:07;23.40;98.70
60909;DHT22;46780;48.128;-1.704;2023-08-24T06:02:35;23.50;98.50
60909;DHT22;46780;48.128;-1.704;2023-08-24T06:05:02;23.60;98.40
60909;DHT22;46780;48.128;-1.704;2023-08-24T06:07:28;23.60;98.30
60909;DHT22;46780;48.128;-1.704;2023-08-24T06:09:56;23.60;98.20
60909;DHT22;46780;48.128;-1.704;2023-08-24T06:12:22;23.60;98.10
60909;DHT22;46780;48.128;-1.704;2023-08-24T06:14:49;23.60;98.10
60909;DHT22;46780;48.128;-1.704;2023-08-24T06:17:15;23.60;98.10
60909;DHT22;46780;48.128;-1.704;2023-08-24T06:19:43;23.60;98.20
60909;DHT22;46780;48.128;-1.704;2023-08-24T06:22:10;23.70;98.20
60909;DHT22;46780;48.128;-1.704;2023-08-24T06:24:36;23.70;98.10
60909;DHT22;46780;48.128;-1.704;2023-08-24T06:27:03;23.70;98.20
60909;DHT22;46780;48.128;-1.704;2023-08-24T06:29:29;23.60;98.30
60909;DHT22;46780;48.128;-1.704;2023-08-24T06:31:56;23.70;98.40
60909;DHT22;46780;48.128;-1.704;2023-08-24T06:34:22;23.70;98.40
60909;DHT22;46780;48.128;-1.704;2023-08-24T06:36:52;23.70;98.40
60909;DHT22;46780;48.128;-1.704;2023-08-24T06:39:19;23.60;98.40
60909;DHT22;46780;48.128;-1.704;2023-08-24T06:41:45;23.70;98.50
60909;DHT22;46780;48.128;-1.704;2023-08-24T06:44:12;23.70;98.60
60909;DHT22;46780;48.128;-1.704;2023-08-24T06:46:38;23.70;98.80
60909;DHT22;46780;48.128;-1.704;2023-08-24T06:49:05;23.70;98.80
60909;DHT22;46780;48.128;-1.704;2023-08-24T06:51:32;23.70;98.90
60909;DHT22;46780;48.128;-1.704;2023-08-24T06:53:59;23.70;99.00
60909;DHT22;46780;48.128;-1.704;2023-08-24T06:56:26;23.70;99.00
60909;DHT22;46780;48.128;-1.704;2023-08-24T06:58:52;23.70;99.10
60909;DHT22;46780;48.128;-1.704;2023-08-24T07:01:19;23.60;99.20
60909;DHT22;46780;48.128;-1.704;2023-08-24T07:03:45;23.60;99.40
60909;DHT22;46780;48.128;-1.704;2023-08-24T07:06:12;23.50;99.50
60909;DHT22;46780;48.128;-1.704;2023-08-24T07:08:38;23.50;99.60
60909;DHT22;46780;48.128;-1.704;2023-08-24T07:11:06;23.40;99.70
60909;DHT22;46780;48.128;-1.704;2023-08-24T07:13:33;23.40;99.80
60909;DHT22;46780;48.128;-1.704;2023-08-24T07:15:59;23.40;99.90
60909;DHT22;46780;48.128;-1.704;2023-08-24T07:18:25;23.30;99.90
60909;DHT22;46780;48.128;-1.704;2023-08-24T07:20:52;23.30;99.90
60909;DHT22;46780;48.128;-1.704;2023-08-24T07:23:19;23.30;99.90
60909;DHT22;46780;48.128;-1.704;2023-08-24T07:25:46;23.30;99.90
60909;DHT22;46780;48.128;-1.704;2023-08-24T07:28:14;23.30;99.90
60909;DHT22;46780;48.128;-1.704;2023-08-24T07:30:40;23.30;99.90
60909;DHT22;46780;48.128;-1.704;2023-08-24T07:33:07;23.30;99.90
60909;DHT22;46780;48.128;-1.704;2023-08-24T07:35:33;23.30;99.90
60909;DHT22;46780;48.128;-1.704;2023-08-24T07:38:00;23.40;99.90
60909;DHT22;46780;48.128;-1.704;2023-08-24T07:40:26;23.30;99.90
60909;DHT22;46780;48.128;-1.704;2023-08-24T07:42:54;23.30;99.90
60909;DHT22;46780;48.128;-1.704;2023-08-24T07:45:22;23.40;99.90
60909;DHT22;46780;48.128;-1.704;2023-08-24T07:47:48;23.30;99.90
60909;DHT22;46780;48.128;-1.704;2023-08-24T07:50:15;23.30;99.90
60909;DHT22;46780;48.128;-1.704;2023-08-24T07:52:41;23.30;99.90
60909;DHT22;46780;48.128;-1.704;2023-08-24T07:55:08;23.40;99.90
60909;DHT22;46780;48.128;-1.704;2023-08-24T07:57:35;23.40;99.90
60909;DHT22;46780;48.128;-1.704;2023-08-24T08:00:01;23.40;99.90
60909;DHT22;46780;48.128;-1.704;2023-08-24T08:02:29;23.30;99.90
60909;DHT22;46780;48.128;-1.704;2023-08-24T08:04:57;23.40;99.90
60909;DHT22;46780;48.128;-1.704;2023-08-24T08:07:23;23.30;99.90
60909;DHT22;46780;48.128;-1.704;2023-08-24T08:09:51;23.40;99.90
60909;DHT22;46780;48.128;-1.704;2023-08-24T08:12:17;23.40;99.90
60909;DHT22;46780;48.128;-1.704;2023-08-24T08:14:44;23.30;99.90
60909;DHT22;46780;48.128;-1.704;2023-08-24T08:17:10;23.30;99.90
60909;DHT22;46780;48.128;-1.704;2023-08-24T08:19:38;23.30;99.90
60909;DHT22;46780;48.128;-1.704;2023-08-24T08:22:04;23.30;99.90
60909;DHT22;46780;48.128;-1.704;2023-08-24T08:24:31;23.20;99.90
60909;DHT22;46780;48.128;-1.704;2023-08-24T08:26:57;23.20;99.90
60909;DHT22;46780;48.128;-1.704;2023-08-24T08:29:24;23.20;99.90
60909;DHT22;46780;48.128;-1.704;2023-08-24T08:31:50;23.30;99.90
60909;DHT22;46780;48.128;-1.704;2023-08-24T08:34:17;23.40;99.90
60909;DHT22;46780;48.128;-1.704;2023-08-24T08:36:44;23.60;99.90
60909;DHT22;46780;48.128;-1.704;2023-08-24T08:39:11;23.60;99.90
60909;DHT22;46780;48.128;-1.704;2023-08-24T08:41:42;23.70;99.90
60909;DHT22;46780;48.128;-1.704;2023-08-24T08:44:11;23.70;99.90
60909;DHT22;46780;48.128;-1.704;2023-08-24T08:46:40;23.70;99.90
60909;DHT22;46780;48.128;-1.704;2023-08-24T08:49:07;23.80;99.90
60909;DHT22;46780;48.128;-1.704;2023-08-24T08:51:35;23.90;99.90
60909;DHT22;46780;48.128;-1.704;2023-08-24T08:54:03;24.00;99.90
60909;DHT22;46780;48.128;-1.704;2023-08-24T08:56:30;24.20;99.90
60909;DHT22;46780;48.128;-1.704;2023-08-24T08:58:59;24.20;99.90
60909;DHT22;46780;48.128;-1.704;2023-08-24T09:01:25;24.40;99.80
60909;DHT22;46780;48.128;-1.704;2023-08-24T09:03:52;24.50;99.50
60909;DHT22;46780;48.128;-1.704;2023-08-24T09:06:20;24.50;99.30
60909;DHT22;46780;48.128;-1.704;2023-08-24T09:08:47;24.60;99.20
60909;DHT22;46780;48.128;-1.704;2023-08-24T09:11:16;24.70;99.00
60909;DHT22;46780;48.128;-1.704;2023-08-24T09:13:43;24.70;98.80
60909;DHT22;46780;48.128;-1.704;2023-08-24T09:16:09;24.70;98.80
60909;DHT22;46780;48.128;-1.704;2023-08-24T09:18:36;24.70;98.80
60909;DHT22;46780;48.128;-1.704;2023-08-24T09:21:08;24.60;99.00
60909;DHT22;46780;48.128;-1.704;2023-08-24T09:23:35;24.50;99.30
60909;DHT22;46780;48.128;-1.704;2023-08-24T09:26:01;24.50;99.60
60909;DHT22;46780;48.128;-1.704;2023-08-24T09:28:29;24.40;99.80
60909;DHT22;46780;48.128;-1.704;2023-08-24T09:30:55;24.40;99.90
60909;DHT22;46780;48.128;-1.704;2023-08-24T09:33:22;24.30;99.90
60909;DHT22;46780;48.128;-1.704;2023-08-24T09:35:52;24.20;99.90
60909;DHT22;46780;48.128;-1.704;2023-08-24T09:38:20;24.20;99.90
60909;DHT22;46780;48.128;-1.704;2023-08-24T09:40:49;24.10;99.90
60909;DHT22;46780;48.128;-1.704;2023-08-24T09:43:16;24.10;99.90
60909;DHT22;46780;48.128;-1.704;2023-08-24T09:45:51;24.10;99.90
60909;DHT22;46780;48.128;-1.704;2023-08-24T09:48:18;24.00;99.90
60909;DHT22;46780;48.128;-1.704;2023-08-24T09:50:46;24.00;99.90
60909;DHT22;46780;48.128;-1.704;2023-08-24T09:53:17;24.00;99.90
60909;DHT22;46780;48.128;-1.704;2023-08-24T09:55:44;23.90;99.90
60909;DHT22;46780;48.128;-1.704;2023-08-24T09:58:15;24.00;99.90
60909;DHT22;46780;48.128;-1.704;2023-08-24T10:00:41;23.90;99.90
60909;DHT22;46780;48.128;-1.704;2023-08-24T10:03:11;23.80;99.90
60909;DHT22;46780;48.128;-1.704;2023-08-24T10:05:39;23.80;99.90
60909;DHT22;46780;48.128;-1.704;2023-08-24T10:08:07;23.90;99.90
60909;DHT22;46780;48.128;-1.704;2023-08-24T10:10:35;23.90;99.90
60909;DHT22;46780;48.128;-1.704;2023-08-24T10:13:07;24.00;99.90
60909;DHT22;46780;48.128;-1.704;2023-08-24T10:15:36;24.10;99.90
60909;DHT22;46780;48.128;-1.704;2023-08-24T10:18:05;24.10;99.90
60909;DHT22;46780;48.128;-1.704;2023-08-24T10:20:33;24.20;99.90
60909;DHT22;46780;48.128;-1.704;2023-08-24T10:23:00;24.20;99.90
60909;DHT22;46780;48.128;-1.704;2023-08-24T10:25:27;24.20;99.90
60909;DHT22;46780;48.128;-1.704;2023-08-24T10:27:54;24.30;99.90
60909;DHT22;46780;48.128;-1.704;2023-08-24T10:30:21;24.30;99.90
60909;DHT22;46780;48.128;-1.704;2023-08-24T10:32:48;24.40;99.90
60909;DHT22;46780;48.128;-1.704;2023-08-24T10:35:14;24.40;99.90
60909;DHT22;46780;48.128;-1.704;2023-08-24T10:37:44;24.50;99.90
60909;DHT22;46780;48.128;-1.704;2023-08-24T10:40:11;24.50;99.90
60909;DHT22;46780;48.128;-1.704;2023-08-24T10:42:44;24.50;99.90
60909;DHT22;46780;48.128;-1.704;2023-08-24T10:45:13;24.50;99.90
60909;DHT22;46780;48.128;-1.704;2023-08-24T10:47:44;24.60;99.90
60909;DHT22;46780;48.128;-1.704;2023-08-24T10:50:11;24.70;99.90
60909;DHT22;46780;48.128;-1.704;2023-08-24T10:52:38;24.80;99.90
60909;DHT22;46780;48.128;-1.704;2023-08-24T10:55:23;25.00;99.90
60909;DHT22;46780;48.128;-1.704;2023-08-24T10:57:55;25.30;99.90
60909;DHT22;46780;48.128;-1.704;2023-08-24T11:00:25;25.60;99.70
60909;DHT22;46780;48.128;-1.704;2023-08-24T11:02:52;25.90;98.80
60909;DHT22;46780;48.128;-1.704;2023-08-24T11:05:20;26.30;97.70
60909;DHT22;46780;48.128;-1.704;2023-08-24T11:07:51;26.50;96.30
60909;DHT22;46780;48.128;-1.704;2023-08-24T11:10:19;26.80;95.60
60909;DHT22;46780;48.128;-1.704;2023-08-24T11:13:06;27.50;94.50
60909;DHT22;46780;48.128;-1.704;2023-08-24T11:15:33;28.70;91.80
60909;DHT22;46780;48.128;-1.704;2023-08-24T11:18:13;30.80;82.80
60909;DHT22;46780;48.128;-1.704;2023-08-24T11:20:42;33.40;64.40
60909;DHT22;46780;48.128;-1.704;2023-08-24T11:23:09;34.40;56.70
60909;DHT22;46780;48.128;-1.704;2023-08-24T11:25:36;34.20;55.10
60909;DHT22;46780;48.128;-1.704;2023-08-24T11:28:03;33.40;55.70
60909;DHT22;46780;48.128;-1.704;2023-08-24T11:30:31;32.90;57.10
60909;DHT22;46780;48.128;-1.704;2023-08-24T11:32:58;32.90;56.50
60909;DHT22;46780;48.128;-1.704;2023-08-24T11:35:25;32.80;56.60
60909;DHT22;46780;48.128;-1.704;2023-08-24T11:37:51;32.70;55.60
60909;DHT22;46780;48.128;-1.704;2023-08-24T11:40:18;34.80;50.30
60909;DHT22;46780;48.128;-1.704;2023-08-24T11:42:45;38.10;40.90
60909;DHT22;46780;48.128;-1.704;2023-08-24T11:45:11;38.70;37.80
60909;DHT22;46780;48.128;-1.704;2023-08-24T11:47:39;38.40;37.10
60909;DHT22;46780;48.128;-1.704;2023-08-24T11:50:07;38.10;37.40
60909;DHT22;46780;48.128;-1.704;2023-08-24T11:52:39;39.70;34.30
60909;DHT22;46780;48.128;-1.704;2023-08-24T11:55:06;41.60;30.80
60909;DHT22;46780;48.128;-1.704;2023-08-24T11:57:33;43.40;27.80
60909;DHT22;46780;48.128;-1.704;2023-08-24T12:00:00;44.80;25.90
60909;DHT22;46780;48.128;-1.704;2023-08-24T12:02:27;45.60;24.30
60909;DHT22;46780;48.128;-1.704;2023-08-24T12:04:55;45.90;23.80
60909;DHT22;46780;48.128;-1.704;2023-08-24T12:07:22;46.30;23.00
60909;DHT22;46780;48.128;-1.704;2023-08-24T12:09:49;46.10;22.90
60909;DHT22;46780;48.128;-1.704;2023-08-24T12:12:17;45.60;22.60
60909;DHT22;46780;48.128;-1.704;2023-08-24T12:14:44;45.30;23.70
60909;DHT22;46780;48.128;-1.704;2023-08-24T12:17:11;44.90;23.20
60909;DHT22;46780;48.128;-1.704;2023-08-24T12:19:41;44.60;23.20
60909;DHT22;46780;48.128;-1.704;2023-08-24T12:22:12;44.40;23.40
60909;DHT22;46780;48.128;-1.704;2023-08-24T12:24:43;44.40;23.50
60909;DHT22;46780;48.128;-1.704;2023-08-24T12:27:17;44.00;23.40
60909;DHT22;46780;48.128;-1.704;2023-08-24T12:29:44;43.60;24.70
60909;DHT22;46780;48.128;-1.704;2023-08-24T12:32:11;44.30;24.10
60909;DHT22;46780;48.128;-1.704;2023-08-24T12:34:37;44.40;23.40
60909;DHT22;46780;48.128;-1.704;2023-08-24T12:37:04;44.20;23.70
60909;DHT22;46780;48.128;-1.704;2023-08-24T12:39:36;44.60;23.30
60909;DHT22;46780;48.128;-1.704;2023-08-24T12:42:03;44.90;22.90
60909;DHT22;46780;48.128;-1.704;2023-08-24T12:44:30;45.00;22.90
60909;DHT22;46780;48.128;-1.704;2023-08-24T12:46:56;45.10;22.60
60909;DHT22;46780;48.128;-1.704;2023-08-24T12:49:23;44.90;22.70
60909;DHT22;46780;48.128;-1.704;2023-08-24T12:51:49;45.00;22.40
60909;DHT22;46780;48.128;-1.704;2023-08-24T12:54:16;44.90;22.50
60909;DHT22;46780;48.128;-1.704;2023-08-24T12:56:43;44.50;23.20
60909;DHT22;46780;48.128;-1.704;2023-08-24T12:59:10;44.40;23.30
60909;DHT22;46780;48.128;-1.704;2023-08-24T13:01:36;44.20;23.30
60909;DHT22;46780;48.128;-1.704;2023-08-24T13:04:03;43.70;23.70
60909;DHT22;46780;48.128;-1.704;2023-08-24T13:06:30;43.30;24.40
60909;DHT22;46780;48.128;-1.704;2023-08-24T13:08:57;43.20;24.00
60909;DHT22;46780;48.128;-1.704;2023-08-24T13:11:23;42.90;24.10
60909;DHT22;46780;48.128;-1.704;2023-08-24T13:13:51;42.80;24.30
60909;DHT22;46780;48.128;-1.704;2023-08-24T13:16:18;43.40;24.00
60909;DHT22;46780;48.128;-1.704;2023-08-24T13:18:44;43.40;23.80
60909;DHT22;46780;48.128;-1.704;2023-08-24T13:21:11;43.30;23.50
60909;DHT22;46780;48.128;-1.704;2023-08-24T13:23:37;42.90;23.70
60909;DHT22;46780;48.128;-1.704;2023-08-24T13:26:04;42.50;24.30
60909;DHT22;46780;48.128;-1.704;2023-08-24T13:28:30;42.20;24.40
60909;DHT22;46780;48.128;-1.704;2023-08-24T13:30:58;41.30;25.10
60909;DHT22;46780;48.128;-1.704;2023-08-24T13:33:24;40.80;25.70
60909;DHT22;46780;48.128;-1.704;2023-08-24T13:35:51;40.90;25.80
60909;DHT22;46780;48.128;-1.704;2023-08-24T13:38:17;40.80;25.90
60909;DHT22;46780;48.128;-1.704;2023-08-24T13:40:44;40.00;26.50
60909;DHT22;46780;48.128;-1.704;2023-08-24T13:43:10;39.00;27.70
60909;DHT22;46780;48.128;-1.704;2023-08-24T13:45:36;37.90;28.90
60909;DHT22;46780;48.128;-1.704;2023-08-24T13:48:06;36.70;29.70
60909;DHT22;46780;48.128;-1.704;2023-08-24T13:50:32;36.00;31.30
60909;DHT22;46780;48.128;-1.704;2023-08-24T13:52:59;35.40;32.60
60909;DHT22;46780;48.128;-1.704;2023-08-24T13:55:25;35.10;33.50
60909;DHT22;46780;48.128;-1.704;2023-08-24T13:57:52;34.90;33.70
60909;DHT22;46780;48.128;-1.704;2023-08-24T14:00:19;34.60;35.30
60909;DHT22;46780;48.128;-1.704;2023-08-24T14:02:45;34.40;35.20
60909;DHT22;46780;48.128;-1.704;2023-08-24T14:05:13;34.00;35.50
60909;DHT22;46780;48.128;-1.704;2023-08-24T14:07:40;33.70;36.60
60909;DHT22;46780;48.128;-1.704;2023-08-24T14:10:07;33.40;37.20
60909;DHT22;46780;48.128;-1.704;2023-08-24T14:12:34;33.00;38.10
60909;DHT22;46780;48.128;-1.704;2023-08-24T14:15:00;32.70;39.20
60909;DHT22;46780;48.128;-1.704;2023-08-24T14:17:27;32.40;40.00
60909;DHT22;46780;48.128;-1.704;2023-08-24T14:19:54;32.10;41.00
60909;DHT22;46780;48.128;-1.704;2023-08-24T14:22:21;31.90;41.70
60909;DHT22;46780;48.128;-1.704;2023-08-24T14:24:48;31.70;42.60
60909;DHT22;46780;48.128;-1.704;2023-08-24T14:27:14;31.70;43.50
60909;DHT22;46780;48.128;-1.704;2023-08-24T14:29:41;31.70;42.90
60909;DHT22;46780;48.128;-1.704;2023-08-24T14:32:07;31.50;42.60
60909;DHT22;46780;48.128;-1.704;2023-08-24T14:34:34;31.50;43.90
60909;DHT22;46780;48.128;-1.704;2023-08-24T14:37:01;31.40;43.70
60909;DHT22;46780;48.128;-1.704;2023-08-24T14:39:28;31.40;43.90
60909;DHT22;46780;48.128;-1.704;2023-08-24T14:41:55;31.40;44.20
60909;DHT22;46780;48.128;-1.704;2023-08-24T14:44:21;31.40;44.50
60909;DHT22;46780;48.128;-1.704;2023-08-24T14:46:48;31.40;44.20
60909;DHT22;46780;48.128;-1.704;2023-08-24T14:49:14;31.50;43.60
60909;DHT22;46780;48.128;-1.704;2023-08-24T14:51:41;31.40;43.30
60909;DHT22;46780;48.128;-1.704;2023-08-24T14:54:07;31.30;43.80
60909;DHT22;46780;48.128;-1.704;2023-08-24T14:56:36;31.30;43.90
60909;DHT22;46780;48.128;-1.704;2023-08-24T14:59:03;31.30;43.30
60909;DHT22;46780;48.128;-1.704;2023-08-24T15:01:29;31.20;43.30
60909;DHT22;46780;48.128;-1.704;2023-08-24T15:03:56;31.20;43.50
60909;DHT22;46780;48.128;-1.704;2023-08-24T15:06:22;31.10;42.70
60909;DHT22;46780;48.128;-1.704;2023-08-24T15:08:49;31.00;43.10
60909;DHT22;46780;48.128;-1.704;2023-08-24T15:11:17;31.00;43.40
60909;DHT22;46780;48.128;-1.704;2023-08-24T15:13:47;30.90;43.80
60909;DHT22;46780;48.128;-1.704;2023-08-24T15:16:13;30.90;44.10